Time;durP1;ratioP1;P1;durP2;ratioP2;P2;SDS_P1;SDS_P2;PMS_P1;PMS_P2;Temp;Humidity;BMP_temperature;BMP_pressure;BME280_temperature;BME280_humidity;BME280_pressure;Samples;Min_cycle;Max_cycle;Signal;HPM_P1;HPM_P2
2022/06/22 00:00:06;;;;;;;12.27;10.00;;;;;;;14.40;100.00;101552.72;5070349;28;20119;-84
2022/06/22 00:02:36;;;;;;;13.20;10.70;;;;;;;14.37;100.00;101561.59;5065970;28;20032;-85
2022/06/22 00:05:12;;;;;;;13.50;10.63;;;;;;;14.36;100.00;101568.19;5101407;28;20023;-84
2022/06/22 00:07:50;;;;;;;13.20;10.18;;;;;;;14.23;100.00;101565.03;5054018;28;20040;-85
2022/06/22 00:10:28;;;;;;;12.15;10.02;;;;;;;14.18;100.00;101555.94;5071306;28;20028;-85
2022/06/22 00:12:55;;;;;;;13.40;10.27;;;;;;;14.13;100.00;101557.66;5090235;28;20025;-85
2022/06/22 00:15:46;;;;;;;13.60;11.00;;;;;;;13.94;100.00;101560.28;5089174;28;20073;-85
2022/06/22 00:18:29;;;;;;;12.32;9.85;;;;;;;13.88;100.00;101563.34;5061165;28;20024;-84
2022/06/22 00:20:59;;;;;;;17.42;10.73;;;;;;;13.92;100.00;101561.66;5086423;28;20427;-85
2022/06/22 00:23:35;;;;;;;13.35;11.00;;;;;;;13.96;100.00;101566.31;5099893;28;20257;-84
2022/06/22 00:26:25;;;;;;;12.32;10.40;;;;;;;13.89;100.00;101570.53;5108226;28;20285;-85
2022/06/22 00:29:09;;;;;;;14.95;10.50;;;;;;;13.86;100.00;101562.81;5070055;28;20085;-85
2022/06/22 00:31:49;;;;;;;13.20;10.18;;;;;;;13.85;100.00;101569.44;5088745;28;20035;-86
2022/06/22 00:34:16;;;;;;;14.95;10.15;;;;;;;13.81;100.00;101569.19;5127562;28;20026;-86
2022/06/22 00:36:59;;;;;;;14.00;11.05;;;;;;;13.74;100.00;101561.25;5102048;28;20020;-85
2022/06/22 00:39:31;;;;;;;11.82;10.40;;;;;;;13.77;100.00;101563.44;5088704;28;20023;-86
2022/06/22 00:42:31;;;;;;;12.93;10.73;;;;;;;13.72;100.00;101559.88;5102415;28;20047;-86
2022/06/22 00:45:05;;;;;;;13.07;11.13;;;;;;;13.59;100.00;101553.06;5081049;28;20031;-85
2022/06/22 00:47:40;;;;;;;15.40;10.80;;;;;;;13.33;100.00;101560.66;5075198;28;20032;-84
2022/06/22 00:50:19;;;;;;;11.38;10.23;;;;;;;13.35;100.00;101556.53;5102468;28;20027;-86
2022/06/22 00:52:53;;;;;;;13.40;10.65;;;;;;;13.32;100.00;101550.72;5087746;28;20285;-86
2022/06/22 00:55:34;;;;;;;12.55;11.25;;;;;;;13.47;100.00;101552.59;5107457;28;20032;-85
2022/06/22 00:58:05;;;;;;;13.25;11.55;;;;;;;13.28;100.00;101541.38;5095003;28;20035;-86
2022/06/22 01:00:36;;;;;;;17.00;12.85;;;;;;;13.41;100.00;101544.38;5099561;28;20028;-86
2022/06/22 01:03:26;;;;;;;17.02;13.45;;;;;;;13.23;100.00;101543.06;5105540;28;20030;-85
2022/06/22 01:06:00;;;;;;;16.63;13.27;;;;;;;13.14;100.00;101554.94;5084426;28;20032;-85
2022/06/22 01:08:45;;;;;;;18.50;14.45;;;;;;;12.95;100.00;101563.81;5065213;28;20024;-85
2022/06/22 01:14:13;;;;;;;18.15;15.35;;;;;;;13.24;100.00;101560.41;5087424;28;20504;-87
2022/06/22 01:16:42;;;;;;;20.40;15.40;;;;;;;13.06;100.00;101559.09;5067516;28;20073;-84
2022/06/22 01:19:38;;;;;;;18.13;16.00;;;;;;;13.04;100.00;101544.78;5087214;28;20024;-85
2022/06/22 01:22:36;;;;;;;18.90;15.25;;;;;;;13.03;100.00;101548.66;5081626;28;20334;-86
2022/06/22 01:25:14;;;;;;;16.70;14.95;;;;;;;12.94;100.00;101545.66;5068527;28;20036;-86
2022/06/22 01:27:43;;;;;;;17.40;15.07;;;;;;;13.12;100.00;101551.63;5095696;28;20398;-85
2022/06/22 01:30:34;;;;;;;17.48;15.77;;;;;;;13.06;100.00;101548.91;5079812;28;20040;-84
2022/06/22 01:33:06;;;;;;;16.83;15.02;;;;;;;13.09;100.00;101544.78;5074349;28;20331;-83
2022/06/22 01:35:39;;;;;;;18.88;15.80;;;;;;;12.98;100.00;101551.41;5075077;28;20032;-85
2022/06/22 01:38:22;;;;;;;;;;;;;;;12.98;100.00;101546.72;5069883;28;20454;-85
2022/06/22 01:41:21;;;;;;;17.38;15.35;;;;;;;12.95;100.00;101549.22;5064297;28;19912;-85
2022/06/22 01:43:56;;;;;;;18.65;16.20;;;;;;;13.00;100.00;101549.19;5079270;28;20496;-85
2022/06/22 01:46:39;;;;;;;19.10;14.98;;;;;;;12.82;100.00;101572.66;5083810;28;20454;-85
2022/06/22 01:49:18;;;;;;;16.52;15.00;;;;;;;12.94;100.00;101572.38;5097998;28;20551;-85
2022/06/22 01:51:51;;;;;;;21.05;16.58;;;;;;;12.92;100.00;101574.56;5071178;28;20489;-85
2022/06/22 01:54:23;;;;;;;19.27;16.25;;;;;;;13.05;100.00;101577.56;5086050;28;20107;-86
2022/06/22 01:56:57;;;;;;;20.02;16.58;;;;;;;12.99;100.00;101580.59;5086973;28;20070;-85
2022/06/22 01:59:28;;;;;;;23.50;17.15;;;;;;;13.06;100.00;101592.94;5086448;28;20059;-85
2022/06/22 02:02:36;;;;;;;18.70;16.70;;;;;;;12.98;100.00;101585.25;5083645;28;20054;-84
2022/06/22 02:05:22;;;;;;;17.80;16.02;;;;;;;12.90;100.00;101593.28;5086058;28;20157;-86
2022/06/22 02:08:18;;;;;;;17.73;15.70;;;;;;;12.96;100.00;101570.97;5083060;28;20046;-82
2022/06/22 02:10:59;;;;;;;19.10;15.80;;;;;;;12.84;100.00;101574.03;5084449;28;20113;-82
2022/06/22 02:13:50;;;;;;;19.70;16.38;;;;;;;12.86;100.00;101571.81;5067707;28;20028;-84
2022/06/22 02:16:23;;;;;;;17.23;15.38;;;;;;;12.88;100.00;101566.84;5098092;28;20028;-85
2022/06/22 02:18:50;;;;;;;;;;;;;;;12.67;100.00;101562.50;5090729;28;20027;-84
2022/06/22 02:21:23;;;;;;;18.67;15.45;;;;;;;12.49;100.00;101559.28;5071465;28;19969;-86
2022/06/22 02:24:00;;;;;;;18.38;14.95;;;;;;;12.54;100.00;101563.91;5087930;28;20032;-84
2022/06/22 02:26:45;;;;;;;18.23;15.68;;;;;;;12.39;100.00;101570.25;5091363;28;20030;-84
2022/06/22 02:29:13;;;;;;;22.25;16.83;;;;;;;12.44;100.00;101580.44;5081280;28;20054;-83
2022/06/22 02:31:40;;;;;;;21.15;16.75;;;;;;;12.57;100.00;101571.59;5078822;28;20126;-84
2022/06/22 02:34:05;;;;;;;18.80;16.80;;;;;;;12.68;100.00;101558.66;5078524;28;20062;-85
2022/06/22 02:36:39;;;;;;;21.02;17.05;;;;;;;12.65;100.00;101553.72;5091320;28;20060;-85
2022/06/22 02:39:09;;;;;;;23.00;16.88;;;;;;;12.62;100.00;101555.09;5074976;28;20031;-83
2022/06/22 02:44:33;;;;;;;22.50;17.42;;;;;;;12.54;100.00;101541.09;5093204;28;20047;-83
2022/06/22 02:47:13;;;;;;;19.45;16.63;;;;;;;12.63;100.00;101533.94;5105100;28;20609;-84
2022/06/22 02:49:46;;;;;;;21.13;17.70;;;;;;;12.33;100.00;101532.91;5079093;28;20023;-84
2022/06/22 02:52:15;;;;;;;22.20;17.92;;;;;;;12.35;100.00;101533.44;5082340;28;20028;-86
2022/06/22 02:54:52;;;;;;;19.30;17.13;;;;;;;12.44;100.00;101531.75;5082809;28;20081;-84
2022/06/22 02:57:26;;;;;;;23.10;16.52;;;;;;;12.44;100.00;101523.50;5095608;28;20032;-84
2022/06/22 02:59:52;;;;;;;24.98;19.85;;;;;;;12.45;100.00;101521.59;5069899;28;20452;-84
2022/06/22 03:02:22;;;;;;;24.48;19.25;;;;;;;12.44;100.00;101519.94;5071782;28;20046;-85
2022/06/22 03:04:49;;;;;;;23.33;19.98;;;;;;;12.45;100.00;101516.91;5088688;28;20028;-86
2022/06/22 03:07:18;;;;;;;22.33;18.13;;;;;;;12.41;100.00;101509.47;5071787;28;20466;-85
2022/06/22 03:09:46;;;;;;;20.85;18.55;;;;;;;12.28;100.00;101502.63;5067996;28;20504;-86
2022/06/22 03:12:13;;;;;;;22.40;18.85;;;;;;;12.37;100.00;101495.47;5089354;28;20028;-84
2022/06/22 03:14:48;;;;;;;21.45;18.58;;;;;;;12.35;100.00;101500.44;5071327;28;20035;-84
2022/06/22 03:17:22;;;;;;;22.55;18.30;;;;;;;12.48;100.00;101499.03;5094412;28;20027;-85
2022/06/22 03:20:00;;;;;;;21.63;19.23;;;;;;;12.40;100.00;101497.66;5089204;28;20228;-85
2022/06/22 03:23:23;;;;;;;26.20;19.63;;;;;;;12.24;100.00;101507.88;5089490;28;20154;-83
2022/06/22 03:26:04;;;;;;;25.58;20.27;;;;;;;12.35;100.00;101507.84;5005267;28;20029;-85
2022/06/22 03:28:41;;;;;;;21.17;18.38;;;;;;;12.41;100.00;101510.34;5008135;28;20064;-85
2022/06/22 03:31:13;;;;;;;24.10;19.58;;;;;;;12.28;100.00;101508.13;5064592;28;20039;-84
2022/06/22 03:33:50;;;;;;;24.23;20.13;;;;;;;12.25;100.00;101505.97;5084220;28;20068;-84
2022/06/22 03:36:32;;;;;;;24.10;19.33;;;;;;;12.30;100.00;101506.75;5080544;28;20024;-84
2022/06/22 03:39:07;;;;;;;23.63;20.20;;;;;;;12.18;100.00;101511.72;5091575;28;20189;-85
2022/06/22 03:41:39;;;;;;;21.85;19.50;;;;;;;12.15;100.00;101512.28;5084771;28;20044;-85
2022/06/22 03:44:16;;;;;;;25.63;19.90;;;;;;;12.07;100.00;101510.91;5065270;28;20032;-84
2022/06/22 03:46:45;;;;;;;24.80;19.67;;;;;;;12.24;100.00;101516.13;5070666;28;20107;-84
2022/06/22 03:49:19;;;;;;;25.08;19.92;;;;;;;12.30;100.00;101515.00;5083485;28;20503;-85
2022/06/22 03:52:14;;;;;;;25.63;19.60;;;;;;;12.35;100.00;101510.59;5065157;28;20431;-83
2022/06/22 03:55:04;;;;;;;27.90;20.48;;;;;;;12.30;100.00;101514.19;5069231;28;20062;-84
2022/06/22 03:57:35;;;;;;;25.85;21.23;;;;;;;12.31;100.00;101519.41;5065815;28;20035;-84
2022/06/22 04:00:04;;;;;;;23.67;19.63;;;;;;;12.09;100.00;101525.19;5075035;28;20036;-83
2022/06/22 04:02:29;;;;;;;27.77;20.67;;;;;;;12.35;100.00;101521.59;5078114;28;20328;-84
2022/06/22 04:04:58;;;;;;;24.30;20.48;;;;;;;12.46;100.00;101520.47;5087606;28;20530;-85
2022/06/22 04:07:28;;;;;;;23.50;20.08;;;;;;;12.54;100.00;101527.34;5072690;28;20442;-84
2022/06/22 04:09:58;;;;;;;25.13;19.15;;;;;;;12.60;100.00;101524.28;5068862;28;20036;-84
2022/06/22 04:12:44;;;;;;;24.27;20.40;;;;;;;12.62;100.00;101518.50;5083311;28;20020;-84
2022/06/22 04:15:13;;;;;;;25.88;20.60;;;;;;;12.68;100.00;101526.47;5067760;28;20116;-83
2022/06/22 04:17:48;;;;;;;26.77;21.00;;;;;;;12.75;100.00;101537.19;5066260;28;20050;-84
2022/06/22 04:20:21;;;;;;;24.77;19.83;;;;;;;12.83;100.00;101539.34;5070313;28;20032;-86
2022/06/22 04:22:53;;;;;;;25.55;21.23;;;;;;;12.73;100.00;101536.66;5084076;28;20115;-85
2022/06/22 04:25:27;;;;;;;;;;;;;;;12.74;100.00;101534.72;5085702;28;20027;-85
2022/06/22 04:27:55;;;;;;;28.48;21.08;;;;;;;12.76;100.00;101530.59;5086108;28;19989;-84
2022/06/22 04:30:35;;;;;;;23.67;20.17;;;;;;;12.78;100.00;101535.81;5069844;28;20047;-85
2022/06/22 04:33:19;;;;;;;25.80;19.58;;;;;;;13.00;100.00;101540.94;5084899;28;20168;-84
2022/06/22 04:36:01;;;;;;;26.83;20.25;;;;;;;13.05;100.00;101536.25;5087050;28;20027;-84
2022/06/22 04:38:27;;;;;;;29.90;20.73;;;;;;;13.12;100.00;101527.69;5083018;28;20061;-84
2022/06/22 04:41:03;;;;;;;27.05;22.58;;;;;;;13.12;100.00;101530.44;5069020;28;20071;-84
2022/06/22 04:43:29;;;;;;;25.23;21.02;;;;;;;13.16;100.00;101526.00;5103320;28;20032;-84
2022/06/22 04:45:56;;;;;;;29.92;22.67;;;;;;;13.09;100.00;101532.94;5086217;28;20047;-85
2022/06/22 04:48:36;;;;;;;25.85;23.05;;;;;;;13.02;100.00;101533.25;5034479;28;20086;-85
2022/06/22 04:51:05;;;;;;;27.67;21.60;;;;;;;13.36;100.00;101529.78;5082769;28;20348;-84
2022/06/22 04:53:38;;;;;;;28.58;22.15;;;;;;;13.57;100.00;101517.53;5067410;28;20016;-85
2022/06/22 04:56:09;;;;;;;25.20;20.23;;;;;;;13.63;100.00;101514.78;5066714;28;20123;-85
2022/06/22 04:58:46;;;;;;;27.40;23.02;;;;;;;13.58;100.00;101526.66;5068594;28;20089;-84
2022/06/22 05:01:28;;;;;;;28.02;22.60;;;;;;;13.57;100.00;101524.97;5066460;28;20081;-85
2022/06/22 05:03:58;;;;;;;30.83;23.35;;;;;;;13.67;100.00;101526.84;5065466;28;20450;-84
2022/06/22 05:06:36;;;;;;;29.60;22.80;;;;;;;13.85;100.00;101530.84;5084357;28;20028;-84
2022/06/22 05:09:21;;;;;;;28.27;22.20;;;;;;;13.93;100.00;101547.59;5065960;28;20123;-84
2022/06/22 05:11:49;;;;;;;27.73;22.35;;;;;;;13.82;100.00;101537.75;5092804;28;20115;-84
2022/06/22 05:14:26;;;;;;;27.77;22.48;;;;;;;13.95;100.00;101537.13;5049975;28;20035;-85
2022/06/22 05:17:21;;;;;;;31.70;24.15;;;;;;;14.11;100.00;101543.31;5090378;28;20131;-85
2022/06/22 05:20:15;;;;;;;31.35;24.02;;;;;;;14.22;100.00;101557.84;5087579;28;20124;-85
2022/06/22 05:22:40;;;;;;;26.55;21.92;;;;;;;14.37;100.00;101556.88;5069172;28;20032;-84
2022/06/22 05:25:11;;;;;;;29.45;22.58;;;;;;;14.51;100.00;101559.75;5081939;28;20054;-85
2022/06/22 05:28:09;;;;;;;27.75;21.92;;;;;;;14.60;100.00;101558.06;5069830;28;20024;-85
2022/06/22 05:30:53;;;;;;;24.35;19.77;;;;;;;14.70;100.00;101551.59;5052752;28;20382;-84
2022/06/22 05:33:22;;;;;;;25.55;20.88;;;;;;;14.73;100.00;101562.06;5067799;28;20016;-85
2022/06/22 05:35:55;;;;;;;31.30;22.05;;;;;;;14.85;100.00;101561.66;5084827;28;20032;-84
2022/06/22 05:38:22;;;;;;;;;;;;;;;14.86;100.00;101558.59;5068153;28;20043;-84
2022/06/22 05:40:51;;;;;;;28.15;21.15;;;;;;;14.93;100.00;101560.19;5093108;28;19911;-84
2022/06/22 05:43:17;;;;;;;24.73;21.08;;;;;;;15.07;100.00;101567.47;5088528;28;20047;-84
2022/06/22 05:45:51;;;;;;;27.60;19.75;;;;;;;15.15;100.00;101559.63;5087431;28;20032;-84
2022/06/22 05:48:23;;;;;;;23.00;18.77;;;;;;;15.14;100.00;101567.09;5088027;28;20110;-83
2022/06/22 05:50:56;;;;;;;24.95;18.85;;;;;;;15.33;100.00;101563.53;5105641;28;20072;-85
2022/06/22 05:53:24;;;;;;;;;;;;;;;15.21;100.00;101572.28;5087992;28;20119;-85
2022/06/22 05:56:09;;;;;;;23.70;18.13;;;;;;;15.50;100.00;101574.94;5085690;28;19923;-83
2022/06/22 05:58:46;;;;;;;21.10;17.75;;;;;;;15.61;100.00;101570.09;5074765;28;20059;-83
2022/06/22 06:01:23;;;;;;;19.40;17.10;;;;;;;15.70;100.00;101571.03;5099560;28;20535;-83
2022/06/22 06:04:07;;;;;;;18.42;15.80;;;;;;;15.84;100.00;101564.78;5082765;28;20061;-82
2022/06/22 06:06:39;;;;;;;17.20;14.10;;;;;;;16.01;100.00;101564.25;5079092;28;20030;-84
2022/06/22 06:09:11;;;;;;;15.07;13.38;;;;;;;16.11;100.00;101562.13;5100621;28;20023;-84
2022/06/22 06:11:41;;;;;;;20.10;13.60;;;;;;;16.26;100.00;101568.53;5101562;28;20031;-84
2022/06/22 06:14:19;;;;;;;16.98;11.80;;;;;;;16.17;100.00;101572.00;5082634;28;20026;-84
2022/06/22 06:16:49;;;;;;;15.02;10.82;;;;;;;16.37;100.00;101561.69;5082870;28;20114;-84
2022/06/22 06:19:22;;;;;;;16.55;11.38;;;;;;;16.49;100.00;101561.22;5082894;28;20521;-84
2022/06/22 06:21:54;;;;;;;15.13;11.40;;;;;;;16.44;100.00;101569.59;5082980;28;20019;-83
2022/06/22 06:27:34;;;;;;;14.85;10.35;;;;;;;16.30;100.00;101569.59;5082944;28;20031;-81
2022/06/22 06:27:34;;;;;;;14.18;9.27;;;;;;;16.63;100.00;101556.53;5100464;28;20024;-81
2022/06/22 06:30:15;;;;;;;13.20;9.05;;;;;;;16.77;100.00;101562.06;5086219;28;20112;-82
2022/06/22 06:32:46;;;;;;;13.57;8.48;;;;;;;16.87;100.00;101564.69;5081343;28;20023;-81
2022/06/22 06:35:36;;;;;;;12.30;8.10;;;;;;;17.06;100.00;101561.78;5100665;28;20026;-82
2022/06/22 06:38:28;;;;;;;13.10;7.80;;;;;;;17.19;100.00;101562.91;5081014;28;20051;-82
2022/06/22 06:40:56;;;;;;;9.02;6.80;;;;;;;17.29;100.00;101561.06;5076611;28;20039;-82
2022/06/22 06:43:33;;;;;;;11.20;6.45;;;;;;;17.33;100.00;101560.13;5086882;28;20035;-83
2022/06/22 06:46:00;;;;;;;11.70;6.38;;;;;;;17.44;100.00;101557.94;5102935;28;20047;-81
2022/06/22 06:48:28;;;;;;;11.05;6.68;;;;;;;17.40;100.00;101559.72;5071365;28;20035;-84
2022/06/22 06:50:59;;;;;;;10.52;6.63;;;;;;;17.64;100.00;101551.09;5046238;28;20099;-83
2022/06/22 06:53:44;;;;;;;9.73;6.47;;;;;;;17.70;100.00;101558.19;5064299;28;20085;-84
2022/06/22 06:56:17;;;;;;;7.80;5.80;;;;;;;17.84;100.00;101547.06;5082288;28;20058;-82
2022/06/22 06:58:46;;;;;;;11.70;6.22;;;;;;;17.90;100.00;101545.78;5103973;28;20601;-85
2022/06/22 07:01:18;;;;;;;8.70;6.80;;;;;;;17.81;100.00;101533.81;5102562;28;20511;-83
2022/06/22 07:03:45;;;;;;;10.85;7.13;;;;;;;17.69;100.00;101547.41;5084772;28;20028;-83
2022/06/22 07:06:11;;;;;;;9.55;7.40;;;;;;;18.05;100.00;101530.72;5080701;28;20036;-81
2022/06/22 07:08:43;;;;;;;11.18;7.20;;;;;;;18.09;100.00;101530.94;5083057;28;20058;-81
2022/06/22 07:11:12;;;;;;;9.97;7.10;;;;;;;17.98;100.00;101522.84;5069556;28;20047;-82
2022/06/22 07:13:49;;;;;;;10.40;6.72;;;;;;;18.13;100.00;101532.72;5078826;28;20023;-81
2022/06/22 07:16:20;;;;;;;10.55;6.20;;;;;;;18.41;100.00;101526.22;5101032;28;20080;-79
2022/06/22 07:18:54;;;;;;;9.82;6.88;;;;;;;18.34;100.00;101532.22;5104071;28;20526;-79
2022/06/22 07:21:25;;;;;;;11.20;7.32;;;;;;;18.59;100.00;101522.38;5064133;28;20540;-80
2022/06/22 07:24:14;;;;;;;13.52;7.57;;;;;;;18.76;100.00;101521.63;5065107;28;20028;-80
2022/06/22 07:27:10;;;;;;;13.05;7.68;;;;;;;18.89;100.00;101517.13;5066543;28;20104;-78
2022/06/22 07:29:50;;;;;;;11.30;7.55;;;;;;;19.16;100.00;101515.22;5069794;28;20085;-82
2022/06/22 07:32:21;;;;;;;10.75;7.13;;;;;;;18.95;100.00;101524.16;5069938;28;20019;-80
2022/06/22 07:35:02;;;;;;;10.82;6.43;;;;;;;19.34;100.00;101521.63;5077343;28;20036;-81
2022/06/22 07:37:36;;;;;;;11.07;6.35;;;;;;;19.32;100.00;101524.72;5077526;28;20112;-79
2022/06/22 07:40:23;;;;;;;9.82;7.20;;;;;;;19.07;100.00;101523.53;5088746;28;20016;-80
2022/06/22 07:42:51;;;;;;;9.18;6.75;;;;;;;19.13;100.00;101522.25;5085700;28;20077;-79
2022/06/22 07:45:20;;;;;;;9.60;7.15;;;;;;;19.23;100.00;101529.44;5104915;28;20035;-79
2022/06/22 07:48:10;;;;;;;12.18;7.40;;;;;;;19.26;100.00;101526.84;5105406;28;20372;-79
2022/06/22 07:50:56;;;;;;;13.60;7.63;;;;;;;19.40;100.00;101528.69;5105958;28;20437;-79
2022/06/22 07:53:36;;;;;;;11.52;7.53;;;;;;;19.83;100.00;101528.69;5066379;28;20755;-79
2022/06/22 07:56:41;;;;;;;15.50;8.32;;;;;;;19.24;100.00;101517.19;5083116;28;20027;-79
2022/06/22 07:59:18;;;;;;;11.35;7.95;;;;;;;19.83;100.00;101519.53;5036099;28;20425;-79
2022/06/22 08:01:46;;;;;;;11.32;7.65;;;;;;;19.90;100.00;101507.91;5085014;28;20688;-79
2022/06/22 08:04:21;;;;;;;10.70;7.75;;;;;;;20.27;100.00;101514.72;5085147;28;20028;-79
2022/06/22 08:06:55;;;;;;;15.82;8.30;;;;;;;20.30;100.00;101510.44;5064848;28;20072;-81
2022/06/22 08:09:34;;;;;;;14.20;9.32;;;;;;;20.54;100.00;101516.22;5080650;28;20084;-81
2022/06/22 08:12:03;;;;;;;10.02;7.22;;;;;;;20.96;100.00;101510.00;5065931;28;20504;-79
2022/06/22 08:14:35;;;;;;;10.02;7.22;;;;;;;20.59;100.00;101514.44;5066901;28;20375;-76
2022/06/22 08:17:06;;;;;;;8.63;7.30;;;;;;;20.28;100.00;101515.50;5065465;28;20020;-76
2022/06/22 08:19:32;;;;;;;13.75;7.47;;;;;;;21.07;100.00;101516.84;5064675;28;20127;-78
2022/06/22 08:22:07;;;;;;;11.35;7.60;;;;;;;20.52;100.00;101523.31;5098783;28;20039;-77
2022/06/22 08:24:37;;;;;;;7.45;6.20;;;;;;;20.98;100.00;101515.25;5085143;28;20023;-77
2022/06/22 08:27:04;;;;;;;11.00;6.80;;;;;;;20.91;100.00;101522.16;5086042;28;20152;-77
2022/06/22 08:29:31;;;;;;;12.90;8.27;;;;;;;20.87;100.00;101507.28;5084547;28;20031;-76
2022/06/22 08:32:13;;;;;;;10.00;8.30;;;;;;;20.51;100.00;101514.13;5088169;28;20035;-78
2022/06/22 08:34:48;;;;;;;10.32;7.05;;;;;;;21.08;100.00;101509.28;5105065;28;20054;-78
2022/06/22 08:37:41;;;;;;;9.80;7.18;;;;;;;20.98;100.00;101516.06;5100830;28;20330;-76
2022/06/22 08:40:21;;;;;;;9.70;6.20;;;;;;;21.59;100.00;101524.03;5087376;28;20489;-77
2022/06/22 08:42:49;;;;;;;8.07;5.55;;;;;;;21.25;100.00;101525.06;5105504;28;20079;-78
2022/06/22 08:45:38;;;;;;;10.55;6.93;;;;;;;21.41;100.00;101522.50;5085696;28;20047;-78
2022/06/22 08:48:12;;;;;;;10.27;7.18;;;;;;;21.00;100.00;101516.53;5108030;28;20078;-78
2022/06/22 08:51:10;;;;;;;8.80;6.35;;;;;;;21.90;100.00;101516.38;5105687;28;20465;-78
2022/06/22 08:53:39;;;;;;;12.80;5.28;;;;;;;21.42;100.00;101524.16;5058464;28;20051;-79
2022/06/22 08:56:22;;;;;;;12.27;5.95;;;;;;;21.34;100.00;101528.63;5086138;28;20023;-78
2022/06/22 08:59:25;;;;;;;7.75;5.50;;;;;;;22.48;100.00;101519.22;5066347;28;20458;-80
2022/06/22 09:02:14;;;;;;;9.43;4.95;;;;;;;22.88;100.00;101512.97;5067835;28;20028;-81
2022/06/22 09:05:11;;;;;;;10.27;5.30;;;;;;;22.55;100.00;101519.47;5067644;28;20032;-77
2022/06/22 09:07:52;;;;;;;8.35;6.22;;;;;;;22.09;100.00;101518.66;5062785;28;20473;-78
2022/06/22 09:10:43;;;;;;;11.70;5.45;;;;;;;22.84;100.00;101521.25;5066324;28;20081;-78
2022/06/22 09:13:39;;;;;;;10.18;6.55;;;;;;;21.81;100.00;101524.84;5064178;28;20062;-78
2022/06/22 09:16:25;;;;;;;8.82;6.53;;;;;;;20.54;100.00;101541.31;5084712;28;20020;-78
2022/06/22 09:19:44;;;;;;;10.52;7.10;;;;;;;20.22;100.00;101531.59;5084994;28;20020;-76
2022/06/22 09:22:19;;;;;;;9.30;6.78;;;;;;;20.82;100.00;101531.72;5062023;28;20031;-78
2022/06/22 09:24:59;;;;;;;9.18;6.40;;;;;;;21.31;100.00;101523.72;5065638;28;20415;-78
2022/06/22 09:27:49;;;;;;;8.57;5.35;;;;;;;21.13;100.00;101530.56;5096101;28;20020;-78
2022/06/22 09:30:24;;;;;;;7.07;5.80;;;;;;;20.05;100.00;101526.06;5102710;28;20520;-76
2022/06/22 09:33:20;;;;;;;10.00;6.10;;;;;;;20.99;100.00;101522.44;5079226;28;20032;-78
2022/06/22 09:36:24;;;;;;;9.55;6.30;;;;;;;21.14;100.00;101527.44;5064144;28;20047;-78
2022/06/22 09:39:06;;;;;;;;;;;;;;;21.08;100.00;101537.97;5073666;28;20039;-78
2022/06/22 09:41:50;;;;;;;13.50;6.85;;;;;;;20.04;100.00;101543.88;5100123;28;20406;-77
2022/06/22 09:44:52;;;;;;;10.45;6.97;;;;;;;19.82;100.00;101542.94;5102007;28;20466;-77
2022/06/22 09:57:42;;;;;;;8.60;5.78;;;;;;;20.72;100.00;101533.72;5095300;28;20074;-78
2022/06/22 10:00:15;;;;;;;10.52;6.03;;;;;;;20.45;100.00;101543.31;5081758;28;20106;-78
2022/06/22 10:03:12;;;;;;;9.95;5.55;;;;;;;20.71;100.00;101536.84;5080365;28;20123;-78
2022/06/22 10:06:00;;;;;;;12.15;5.75;;;;;;;21.50;100.00;101526.09;5078649;28;20100;-78
2022/06/22 10:08:54;;;;;;;10.73;5.80;;;;;;;21.26;100.00;101526.72;5078447;28;20127;-77
2022/06/22 10:11:24;;;;;;;12.40;5.60;;;;;;;21.36;100.00;101525.50;5098469;28;20135;-77
2022/06/22 10:14:14;;;;;;;8.73;6.03;;;;;;;21.48;100.00;101522.81;5096758;28;20541;-78
2022/06/22 10:16:50;;;;;;;8.82;5.80;;;;;;;21.26;100.00;101530.31;5078355;28;20032;-77
2022/06/22 10:19:47;;;;;;;9.15;4.97;;;;;;;22.29;100.00;101526.19;5081475;28;20050;-77
2022/06/22 10:22:41;;;;;;;9.02;5.45;;;;;;;21.77;100.00;101519.09;5075398;28;20123;-78
2022/06/22 10:25:29;;;;;;;16.08;5.50;;;;;;;22.29;100.00;101517.00;5081507;28;20103;-76
2022/06/22 10:28:13;;;;;;;7.30;5.50;;;;;;;21.32;100.00;101518.94;5078184;28;20327;-76
2022/06/22 10:30:59;;;;;;;9.52;5.38;;;;;;;22.39;100.00;101513.75;5079201;28;20058;-77
2022/06/22 10:33:38;;;;;;;8.95;4.60;;;;;;;23.48;100.00;101518.81;5080787;28;20122;-79
2022/06/22 10:36:22;;;;;;;8.23;4.15;;;;;;;22.51;100.00;101513.78;5081283;28;20028;-79
2022/06/22 10:39:13;;;;;;;7.07;4.00;;;;;;;22.41;100.00;101514.19;5100316;28;20085;-77
2022/06/22 10:45:18;;;;;;;7.47;4.40;;;;;;;22.54;100.00;101504.66;5094903;28;20042;-77
2022/06/22 10:47:46;;;;;;;6.07;4.38;;;;;;;22.92;100.00;101502.69;5081550;28;20039;-77
2022/06/22 10:50:38;;;;;;;5.75;3.65;;;;;;;23.17;100.00;101499.88;5082408;28;20020;-80
2022/06/22 10:53:38;;;;;;;6.25;3.40;;;;;;;22.67;100.00;101493.50;5067288;28;20048;-83
2022/06/22 10:56:04;;;;;;;8.07;4.15;;;;;;;22.62;100.00;101497.34;5060743;28;20378;-76
2022/06/22 10:58:43;;;;;;;6.22;3.50;;;;;;;21.61;100.00;101507.78;5055860;28;20495;-80
2022/06/22 11:01:39;;;;;;;9.48;4.03;;;;;;;21.61;100.00;101493.00;5057475;28;20333;-79
2022/06/22 11:04:43;;;;;;;7.25;4.07;;;;;;;22.99;100.00;101483.38;5052063;28;20395;-79
2022/06/22 11:07:59;;;;;;;8.18;4.07;;;;;;;21.99;100.00;101503.97;5041962;28;20032;-81
2022/06/22 11:11:03;;;;;;;5.95;3.70;;;;;;;21.51;100.00;101504.56;5010171;28;20106;-77
2022/06/22 11:13:38;;;;;;;8.77;3.83;;;;;;;22.37;100.00;101496.53;5041749;28;20333;-78
2022/06/22 11:16:09;;;;;;;6.45;3.83;;;;;;;23.27;100.00;101486.25;5043299;28;20028;-80
2022/06/22 11:18:50;;;;;;;4.88;3.00;;;;;;;22.98;100.00;101498.50;5043943;28;20017;-79
2022/06/22 11:21:53;;;;;;;6.40;3.50;;;;;;;21.50;100.00;101492.59;5042158;28;20025;-82
2022/06/22 11:24:40;;;;;;;7.38;3.40;;;;;;;22.49;100.00;101499.31;5043235;28;20051;-77
2022/06/22 11:33:55;;;;;;;6.50;3.42;;;;;;;22.44;100.00;101479.97;5034874;28;20399;-79
2022/06/22 11:36:36;;;;;;;7.72;4.07;;;;;;;22.49;100.00;101481.75;5044527;28;20094;-80
2022/06/22 11:39:07;;;;;;;7.72;3.75;;;;;;;23.58;100.00;101473.56;5045041;28;20036;-78
2022/06/22 11:41:45;;;;;;;5.50;3.20;;;;;;;23.48;100.00;101463.69;5042569;28;20025;-81
2022/06/22 11:48:12;;;;;;;4.93;2.72;;;;;;;23.52;100.00;101465.78;5043066;28;20039;-79
2022/06/22 11:51:03;;;;;;;;;;;;;;;25.24;100.00;101456.09;5036475;28;20175;-76
2022/06/22 11:53:47;;;;;;;5.20;2.80;;;;;;;24.06;100.00;101470.09;5042219;28;20020;-78
2022/06/22 11:56:28;;;;;;;4.90;2.85;;;;;;;23.55;100.00;101470.66;5046124;28;20515;-82
2022/06/22 11:59:18;;;;;;;5.25;3.08;;;;;;;23.16;100.00;101467.50;5043274;28;20490;-79
2022/06/22 12:01:46;;;;;;;6.32;3.13;;;;;;;23.72;100.00;101463.94;5042766;28;20138;-80
2022/06/22 12:04:15;;;;;;;6.88;3.53;;;;;;;24.29;100.00;101454.28;5044797;28;20036;-80
2022/06/22 12:06:55;;;;;;;6.45;3.28;;;;;;;24.75;100.00;101448.22;5039851;28;20083;-80
2022/06/22 12:09:39;;;;;;;4.47;3.25;;;;;;;23.06;100.00;101449.22;5045600;28;20021;-83
2022/06/22 12:12:40;;;;;;;7.70;3.15;;;;;;;24.02;100.00;101453.16;5044322;28;20027;-81
2022/06/22 12:15:38;;;;;;;6.88;3.03;;;;;;;24.62;100.00;101443.88;5046445;28;20067;-80
2022/06/22 12:18:34;;;;;;;6.15;3.50;;;;;;;23.58;100.00;101450.34;5043171;28;20028;-77
2022/06/22 12:21:16;;;;;;;6.10;3.42;;;;;;;23.41;100.00;101455.06;5041345;28;20036;-80
2022/06/22 12:23:57;;;;;;;7.05;3.97;;;;;;;22.66;100.00;101453.56;5040787;28;20047;-81
2022/06/22 12:26:47;;;;;;;7.28;3.75;;;;;;;22.27;100.00;101455.84;5045115;28;20590;-79
2022/06/22 12:29:48;;;;;;;5.22;3.25;;;;;;;22.83;100.00;101471.25;5043254;28;20031;-82
2022/06/22 12:32:23;;;;;;;6.10;4.57;;;;;;;21.94;100.00;101469.84;5023829;28;20029;-81